createdAt,value
2023-03-19T00:02:17.951Z,100284.97
2023-03-19T00:04:46.903Z,100283.91
2023-03-19T00:07:15.855Z,100284.06
2023-03-19T00:09:43.872Z,100269.91
2023-03-19T00:12:12.077Z,100270.81
2023-03-19T00:14:39.536Z,100271.59
2023-03-19T00:17:07.248Z,100265.38
2023-03-19T00:19:34.947Z,100277.22
2023-03-19T00:22:02.624Z,100273.66
2023-03-19T00:24:30.316Z,100271.97
2023-03-19T00:26:58.004Z,100265.88
2023-03-19T00:29:26.028Z,100269.97
2023-03-19T00:31:53.411Z,100268.19
2023-03-19T00:34:21.555Z,100264.63
2023-03-19T00:36:49.616Z,100265.56
2023-03-19T00:39:17.442Z,100259.50
2023-03-19T00:41:50.384Z,100256.91
2023-03-19T00:44:19.222Z,100267.16
2023-03-19T00:46:46.929Z,100258.44
2023-03-19T00:49:14.395Z,100254.13
2023-03-19T00:51:43.958Z,100248.94
2023-03-19T00:54:12.685Z,100248.78
2023-03-19T00:56:40.240Z,100249.63
2023-03-19T00:59:07.810Z,100252.28
2023-03-19T01:01:35.717Z,100259.81
2023-03-19T01:04:03.725Z,100252.91
2023-03-19T01:06:31.291Z,100252.94
2023-03-19T01:08:59.024Z,100251.16
2023-03-19T01:11:26.511Z,100260.53
2023-03-19T01:13:53.967Z,100259.62
2023-03-19T01:16:22.472Z,100261.41
2023-03-19T01:18:50.124Z,100260.53
2023-03-19T01:21:17.777Z,100252.53
2023-03-19T01:23:45.766Z,100265.44
2023-03-19T01:26:13.608Z,100263.56
2023-03-19T01:28:41.944Z,100260.28
2023-03-19T01:31:10.284Z,100259.06
2023-03-19T01:33:38.561Z,100259.19
2023-03-19T01:36:08.035Z,100261.03
2023-03-19T01:38:36.266Z,100262.62
2023-03-19T01:41:04.756Z,100258.03
2023-03-19T01:43:33.113Z,100260.09
2023-03-19T01:46:06.757Z,100254.09
2023-03-19T01:48:39.865Z,100260.28
2023-03-19T01:51:11.163Z,100258.47
2023-03-19T01:53:42.118Z,100259.25
2023-03-19T01:56:23.758Z,100261.13
2023-03-19T01:58:54.719Z,100263.72
2023-03-19T02:01:23.281Z,100259.19
2023-03-19T02:03:52.701Z,100267.06
2023-03-19T02:06:21.569Z,100253.16
2023-03-19T02:08:50.142Z,100260.87
2023-03-19T02:11:18.474Z,100250.63
2023-03-19T02:13:47.166Z,100248.75
2023-03-19T02:16:15.962Z,100241.69
2023-03-19T02:18:44.340Z,100245.06
2023-03-19T02:21:15.018Z,100247.72
2023-03-19T02:23:58.594Z,100251.09
2023-03-19T02:26:29.355Z,100245.13
2023-03-19T02:28:59.342Z,100236.25
2023-03-19T02:31:28.043Z,100237.19
2023-03-19T02:34:02.524Z,100225.81
2023-03-19T02:36:43.296Z,100225.00
2023-03-19T02:39:18.902Z,100237.34
2023-03-19T02:41:47.251Z,100229.44
2023-03-19T02:44:14.862Z,100220.63
2023-03-19T02:46:42.524Z,100222.50
2023-03-19T02:49:10.209Z,100221.38
2023-03-19T02:51:38.943Z,100225.09
2023-03-19T02:54:06.577Z,100219.75
2023-03-19T02:56:35.345Z,100222.44
2023-03-19T02:59:03.107Z,100223.97
2023-03-19T03:01:30.512Z,100229.31
2023-03-19T03:03:58.257Z,100231.06
2023-03-19T03:06:25.718Z,100227.59
2023-03-19T03:08:53.133Z,100226.66
2023-03-19T03:11:20.741Z,100234.88
2023-03-19T03:13:48.417Z,100234.94
2023-03-19T03:16:15.900Z,100229.66
2023-03-19T03:18:43.614Z,100239.00
2023-03-19T03:21:11.749Z,100238.94
2023-03-19T03:23:39.093Z,100235.72
2023-03-19T03:26:07.380Z,100237.53
2023-03-19T03:28:35.528Z,100227.03
2023-03-19T03:31:03.718Z,100234.72
2023-03-19T03:33:31.715Z,100237.53
2023-03-19T03:35:59.237Z,100243.66
2023-03-19T03:38:27.041Z,100237.59
2023-03-19T03:40:54.729Z,100236.41
2023-03-19T03:43:25.445Z,100230.19
2023-03-19T03:45:54.528Z,100225.44
2023-03-19T03:48:22.838Z,100237.34
2023-03-19T03:50:50.309Z,100231.22
2023-03-19T03:53:18.345Z,100229.59
2023-03-19T03:55:46.120Z,100240.03
2023-03-19T03:58:13.694Z,100242.47
2023-03-19T04:00:41.200Z,100238.25
2023-03-19T04:03:08.906Z,100239.91
2023-03-19T04:05:37.717Z,100238.00
2023-03-19T04:08:07.171Z,100247.41
2023-03-19T04:10:36.811Z,100240.37
2023-03-19T04:13:04.321Z,100243.13
2023-03-19T04:15:31.992Z,100237.94
2023-03-19T04:18:00.405Z,100235.69
2023-03-19T04:20:27.837Z,100229.53
2023-03-19T04:22:55.206Z,100218.38
2023-03-19T04:25:22.924Z,100209.81
2023-03-19T04:27:50.468Z,100206.56
2023-03-19T04:30:17.996Z,100205.69
2023-03-19T04:32:46.306Z,100216.94
2023-03-19T04:35:13.748Z,100214.94
2023-03-19T04:37:41.997Z,100212.31
2023-03-19T04:40:11.034Z,100208.81
2023-03-19T04:42:38.863Z,100223.31
2023-03-19T04:45:07.614Z,100227.59
2023-03-19T04:47:35.600Z,100228.31
2023-03-19T04:50:02.946Z,100235.09
2023-03-19T04:52:31.156Z,100235.81
2023-03-19T04:54:58.929Z,100240.34
2023-03-19T04:57:27.070Z,100240.19
2023-03-19T04:59:54.642Z,100236.34
2023-03-19T05:02:22.422Z,100244.69
2023-03-19T05:04:49.924Z,100237.44
2023-03-19T05:07:17.567Z,100238.72
2023-03-19T05:09:46.386Z,100250.06
2023-03-19T05:12:14.539Z,100240.72
2023-03-19T05:14:42.516Z,100239.63
2023-03-19T05:17:11.311Z,100244.78
2023-03-19T05:19:40.208Z,100251.13
2023-03-19T05:22:08.508Z,100251.28
2023-03-19T05:24:36.208Z,100252.22
2023-03-19T05:27:03.889Z,100248.62
2023-03-19T05:29:31.525Z,100248.69
2023-03-19T05:32:03.092Z,100253.31
2023-03-19T05:34:31.433Z,100264.47
2023-03-19T05:36:59.178Z,100259.12
2023-03-19T05:39:27.012Z,100255.03
2023-03-19T05:41:54.888Z,100256.72
2023-03-19T05:44:23.336Z,100246.53
2023-03-19T05:46:52.260Z,100244.22
2023-03-19T05:49:20.725Z,100248.09
2023-03-19T05:51:48.419Z,100253.84
2023-03-19T05:54:16.258Z,100250.09
2023-03-19T05:56:44.457Z,100252.28
2023-03-19T05:59:14.114Z,100254.13
2023-03-19T06:01:42.082Z,100251.09
2023-03-19T06:04:09.898Z,100254.03
2023-03-19T06:06:37.833Z,100261.22
2023-03-19T06:09:05.402Z,100256.09
2023-03-19T06:11:33.355Z,100251.88
2023-03-19T06:14:02.441Z,100261.22
2023-03-19T06:16:31.115Z,100267.34
2023-03-19T06:18:59.183Z,100268.50
2023-03-19T06:21:30.537Z,100268.63
2023-03-19T06:23:58.218Z,100274.97
2023-03-19T06:26:28.345Z,100281.19
2023-03-19T06:28:55.952Z,100278.69
2023-03-19T06:31:23.491Z,100278.03
2023-03-19T06:33:51.452Z,100278.28
2023-03-19T06:36:19.205Z,100285.28
2023-03-19T06:38:47.821Z,100281.06
2023-03-19T06:41:16.358Z,100279.41
2023-03-19T06:43:44.213Z,100287.41
2023-03-19T06:46:12.133Z,100276.97
2023-03-19T06:48:39.913Z,100280.50
2023-03-19T06:51:07.442Z,100290.12
2023-03-19T06:53:35.479Z,100274.50
2023-03-19T06:56:03.615Z,100284.19
2023-03-19T06:58:31.326Z,100287.66
2023-03-19T07:00:59.954Z,100285.94
2023-03-19T07:03:27.669Z,100285.06
2023-03-19T07:05:55.192Z,100280.72
2023-03-19T07:08:22.753Z,100272.03
2023-03-19T07:10:50.498Z,100273.78
2023-03-19T07:13:17.889Z,100266.81
2023-03-19T07:15:45.356Z,100277.25
2023-03-19T07:18:13.018Z,100279.81
2023-03-19T07:20:40.348Z,100277.22
2023-03-19T07:23:07.741Z,100283.28
2023-03-19T07:25:35.474Z,100272.00
2023-03-19T07:28:02.867Z,100280.66
2023-03-19T07:30:30.737Z,100278.06
2023-03-19T07:32:58.450Z,100283.34
2023-03-19T07:35:25.986Z,100292.84
2023-03-19T07:37:53.425Z,100283.28
2023-03-19T07:40:21.480Z,100292.00
2023-03-19T07:42:48.985Z,100285.06
2023-03-19T07:45:16.471Z,100284.19
2023-03-19T07:47:44.152Z,100278.13
2023-03-19T07:50:11.542Z,100281.63
2023-03-19T07:52:39.064Z,100272.91
2023-03-19T07:55:06.966Z,100270.28
2023-03-19T07:57:34.290Z,100277.25
2023-03-19T08:00:01.886Z,100266.84
2023-03-19T08:02:29.653Z,100265.09
2023-03-19T08:04:58.512Z,100277.28
2023-03-19T08:07:26.207Z,100267.69
2023-03-19T08:09:53.549Z,100261.56
2023-03-19T08:12:21.222Z,100265.06
2023-03-19T08:14:48.581Z,100263.34
2023-03-19T08:17:15.997Z,100261.56
2023-03-19T08:19:43.792Z,100260.72
2023-03-19T08:22:11.669Z,100260.72
2023-03-19T08:24:39.088Z,100258.13
2023-03-19T08:27:07.802Z,100252.88
2023-03-19T08:29:35.326Z,100259.81
2023-03-19T08:32:03.048Z,100251.97
2023-03-19T08:34:30.920Z,100256.28
2023-03-19T08:36:58.257Z,100261.53
2023-03-19T08:39:25.882Z,100258.03
2023-03-19T08:41:53.523Z,100262.34
2023-03-19T08:44:21.467Z,100253.56
2023-03-19T08:46:48.868Z,100249.19
2023-03-19T08:49:16.726Z,100247.50
2023-03-19T08:51:44.646Z,100243.94
2023-03-19T08:54:13.749Z,100249.09
2023-03-19T08:56:41.421Z,100246.34
2023-03-19T08:59:08.754Z,100243.84
2023-03-19T09:01:36.727Z,100248.97
2023-03-19T09:04:04.505Z,100245.38
2023-03-19T09:06:31.969Z,100242.69
2023-03-19T09:08:59.341Z,100242.31
2023-03-19T09:11:27.145Z,100230.06
2023-03-19T09:13:54.508Z,100236.69
2023-03-19T09:16:21.985Z,100232.22
2023-03-19T09:18:49.670Z,100235.91
2023-03-19T09:21:17.100Z,100227.78
2023-03-19T09:23:44.475Z,100226.97
2023-03-19T09:26:12.143Z,100229.56
2023-03-19T09:28:39.660Z,100225.50
2023-03-19T09:31:11.531Z,100213.78
2023-03-19T09:33:39.279Z,100217.34
2023-03-19T09:36:07.156Z,100228.66
2023-03-19T09:38:34.714Z,100218.28
2023-03-19T09:41:05.116Z,100220.00
2023-03-19T09:43:32.972Z,100212.28
2023-03-19T09:46:04.341Z,100211.62
2023-03-19T09:48:41.015Z,100202.66
2023-03-19T09:51:13.909Z,100205.66
2023-03-19T09:54:07.401Z,100201.41
2023-03-19T09:56:35.404Z,100204.13
2023-03-19T09:59:03.316Z,100204.72
2023-03-19T10:01:35.637Z,100212.34
2023-03-19T10:04:19.544Z,100209.09
2023-03-19T10:06:47.065Z,100211.94
2023-03-19T10:09:17.718Z,100207.25
2023-03-19T10:12:29.460Z,100193.13
2023-03-19T10:15:00.345Z,100201.94
2023-03-19T10:17:32.617Z,100214.16
2023-03-19T10:20:10.574Z,100196.50
2023-03-19T10:22:51.130Z,100201.44
2023-03-19T10:25:22.616Z,100194.72
2023-03-19T10:27:59.188Z,100196.59
2023-03-19T10:30:27.243Z,100192.16
2023-03-19T10:33:08.946Z,100187.84
2023-03-19T10:35:48.884Z,100185.72
2023-03-19T10:38:24.125Z,100185.63
2023-03-19T10:41:16.872Z,100173.47
2023-03-19T10:43:47.642Z,100177.00
2023-03-19T10:46:15.754Z,100161.91
2023-03-19T10:48:45.709Z,100161.38
2023-03-19T10:51:26.854Z,100158.41
2023-03-19T10:53:57.816Z,100147.91
2023-03-19T10:56:27.266Z,100144.97
2023-03-19T10:59:21.251Z,100161.50
2023-03-19T11:01:48.784Z,100153.69
2023-03-19T11:04:28.721Z,100143.47
2023-03-19T11:07:02.054Z,100130.34
2023-03-19T11:09:39.341Z,100132.09
2023-03-19T11:12:17.424Z,100128.13
2023-03-19T11:14:50.913Z,100120.19
2023-03-19T11:17:18.233Z,100123.19
2023-03-19T11:19:56.698Z,100113.53
2023-03-19T11:22:27.736Z,100109.06
2023-03-19T11:25:01.932Z,100117.66
2023-03-19T11:27:31.975Z,100115.56
2023-03-19T11:29:59.736Z,100092.81
2023-03-19T11:32:55.691Z,100092.31
2023-03-19T11:35:34.881Z,100098.06
2023-03-19T11:38:03.541Z,100099.41
2023-03-19T11:40:43.007Z,100095.94
2023-03-19T11:43:43.289Z,100088.25
2023-03-19T11:46:20.412Z,100092.66
2023-03-19T11:49:00.811Z,100088.28
2023-03-19T11:51:36.124Z,100084.72
2023-03-19T11:54:14.357Z,100084.06
2023-03-19T11:56:43.309Z,100072.78
2023-03-19T12:00:03.710Z,100082.78
2023-03-19T12:03:05.118Z,100072.44
2023-03-19T12:05:35.478Z,100069.81
2023-03-19T12:08:07.633Z,100065.38
2023-03-19T12:10:35.425Z,100061.06
2023-03-19T12:13:12.972Z,100058.06
2023-03-19T12:16:13.655Z,100048.13
2023-03-19T12:19:12.100Z,100045.84
2023-03-19T12:22:01.159Z,100035.97
2023-03-19T12:24:50.808Z,100042.09
2023-03-19T12:27:27.972Z,100031.97
2023-03-19T12:30:17.925Z,100024.69
2023-03-19T12:33:25.304Z,100030.66
2023-03-19T12:35:56.048Z,100025.31
2023-03-19T12:38:40.404Z,100025.25
2023-03-19T12:41:14.352Z,100018.53
2023-03-19T12:44:02.068Z,100012.22
2023-03-19T12:46:49.744Z,100012.34
2023-03-19T12:49:20.966Z,99997.38
2023-03-19T12:51:53.257Z,100000.63
2023-03-19T12:54:24.476Z,99992.50
2023-03-19T12:56:59.597Z,99996.50
2023-03-19T12:59:40.348Z,99986.47
2023-03-19T13:02:31.652Z,99982.72
2023-03-19T13:05:48.879Z,99982.41
2023-03-19T13:08:24.649Z,99982.84
2023-03-19T13:10:52.256Z,99979.31
2023-03-19T13:13:19.487Z,99974.50
2023-03-19T13:15:49.647Z,99980.91
2023-03-19T13:18:26.505Z,99967.38
2023-03-19T13:21:05.764Z,99966.66
2023-03-19T13:23:36.461Z,99962.50
2023-03-19T13:26:07.915Z,99964.03
2023-03-19T13:28:37.615Z,99970.34
2023-03-19T13:31:06.032Z,99958.13
2023-03-19T13:33:35.177Z,99957.69
2023-03-19T13:36:05.443Z,99961.72
2023-03-19T13:38:41.255Z,99950.28
2023-03-19T13:41:39.972Z,99945.38
2023-03-19T13:44:22.385Z,99952.44
2023-03-19T13:46:51.373Z,99938.78
2023-03-19T13:49:26.544Z,99944.50
2023-03-19T13:52:20.585Z,99942.09
2023-03-19T13:54:52.929Z,99936.50
2023-03-19T13:57:23.717Z,99936.75
2023-03-19T13:59:51.676Z,99929.00
2023-03-19T14:02:21.936Z,99934.13
2023-03-19T14:05:00.361Z,99936.28
2023-03-19T14:07:30.982Z,99925.91
2023-03-19T14:09:59.961Z,99921.94
2023-03-19T14:12:34.297Z,99924.59
2023-03-19T14:15:10.988Z,99923.00
2023-03-19T14:17:42.141Z,99928.56
2023-03-19T14:20:13.284Z,99923.22
2023-03-19T14:22:41.130Z,99933.94
2023-03-19T14:25:11.623Z,99931.13
2023-03-19T14:27:45.022Z,99929.62
2023-03-19T14:30:19.980Z,99924.00
2023-03-19T14:32:49.080Z,99920.75
2023-03-19T14:35:20.210Z,99925.06
2023-03-19T14:37:50.365Z,99920.28
2023-03-19T14:40:36.150Z,99924.75
2023-03-19T14:43:27.260Z,99924.81
2023-03-19T14:46:01.384Z,99919.88
2023-03-19T14:48:56.330Z,99920.75
2023-03-19T14:52:31.690Z,99919.09
2023-03-19T14:55:01.644Z,99921.56
2023-03-19T14:57:33.881Z,99910.09
2023-03-19T15:00:02.846Z,99916.06
2023-03-19T15:02:43.648Z,99917.87
2023-03-19T15:05:33.648Z,99920.75
2023-03-19T15:08:06.663Z,99921.12
2023-03-19T15:11:10.742Z,99917.22
2023-03-19T15:13:40.248Z,99915.03
2023-03-19T15:16:26.197Z,99914.75
2023-03-19T15:18:53.844Z,99920.81
2023-03-19T15:21:21.573Z,99917.69
2023-03-19T15:23:49.210Z,99915.84
2023-03-19T15:26:29.422Z,99912.41
2023-03-19T15:28:57.964Z,99911.38
2023-03-19T15:31:55.031Z,99922.22
2023-03-19T15:34:31.619Z,99926.22
2023-03-19T15:37:01.050Z,99915.28
2023-03-19T15:39:31.606Z,99915.44
2023-03-19T15:42:01.593Z,99919.19
2023-03-19T15:44:39.976Z,99913.03
2023-03-19T15:47:12.375Z,99922.09
2023-03-19T15:49:42.712Z,99924.44
2023-03-19T15:52:13.184Z,99922.47
2023-03-19T15:54:40.928Z,99922.31
2023-03-19T15:57:09.491Z,99918.81
2023-03-19T15:59:37.683Z,99916.28
2023-03-19T16:02:29.170Z,99924.84
2023-03-19T16:05:20.428Z,99921.72
2023-03-19T16:07:44.679Z,99933.94
2023-03-19T16:10:45.570Z,99930.53
2023-03-19T16:13:29.805Z,99933.19
2023-03-19T16:16:03.363Z,99931.50
2023-03-19T16:18:54.496Z,99929.94
2023-03-19T16:21:33.778Z,99923.94
2023-03-19T16:24:03.457Z,99928.25
2023-03-19T16:26:38.425Z,99933.53
2023-03-19T16:29:18.421Z,99929.75
2023-03-19T16:31:51.821Z,99932.78
2023-03-19T16:34:30.746Z,99932.84
2023-03-19T16:37:00.630Z,99932.69
2023-03-19T16:39:31.161Z,99935.25
2023-03-19T16:42:15.646Z,99940.06
2023-03-19T16:44:44.473Z,99940.56
2023-03-19T16:47:13.770Z,99939.81
2023-03-19T16:49:41.171Z,99948.47
2023-03-19T16:52:15.828Z,99948.41
2023-03-19T16:54:43.628Z,99952.31
2023-03-19T16:57:15.862Z,99949.59
2023-03-19T16:59:44.045Z,99950.22
2023-03-19T17:02:17.352Z,99955.03
2023-03-19T17:04:46.409Z,99952.63
2023-03-19T17:07:14.117Z,99954.50
2023-03-19T17:09:41.657Z,99959.09
2023-03-19T17:12:14.586Z,99961.88
2023-03-19T17:14:42.806Z,99960.84
2023-03-19T17:17:18.480Z,99962.09
2023-03-19T17:19:46.734Z,99968.59
2023-03-19T17:22:14.502Z,99967.69
2023-03-19T17:24:42.367Z,99963.44
2023-03-19T17:27:11.092Z,99956.78
2023-03-19T17:29:38.769Z,99965.31
2023-03-19T17:32:07.272Z,99960.94
2023-03-19T17:34:36.801Z,99973.47
2023-03-19T17:37:04.557Z,99974.41
2023-03-19T17:39:32.836Z,99969.94
2023-03-19T17:42:00.653Z,99968.28
2023-03-19T17:44:28.133Z,99966.69
2023-03-19T17:46:56.149Z,99971.66
2023-03-19T17:49:29.972Z,99969.38
2023-03-19T17:51:58.592Z,99960.34
2023-03-19T17:54:27.157Z,99971.19
2023-03-19T17:56:55.477Z,99970.56
2023-03-19T17:59:23.454Z,99968.78
2023-03-19T18:01:52.134Z,99970.78
2023-03-19T18:04:21.408Z,99965.28
2023-03-19T18:06:50.828Z,99962.03
2023-03-19T18:09:28.241Z,99961.38
2023-03-19T18:11:56.451Z,99960.22
2023-03-19T18:14:24.014Z,99960.28
2023-03-19T18:16:51.466Z,99966.34
2023-03-19T18:19:29.755Z,99960.50
2023-03-19T18:21:57.404Z,99971.00
2023-03-19T18:24:25.126Z,99966.72
2023-03-19T18:26:52.454Z,99962.28
2023-03-19T18:29:19.798Z,99959.66
2023-03-19T18:31:48.579Z,99956.22
2023-03-19T18:34:16.442Z,99963.25
2023-03-19T18:36:44.248Z,99971.25
2023-03-19T18:39:15.848Z,99964.31
2023-03-19T18:41:43.767Z,99974.12
2023-03-19T18:44:12.301Z,99971.69
2023-03-19T18:46:40.670Z,99977.84
2023-03-19T18:49:20.904Z,99977.66
2023-03-19T18:52:01.542Z,99976.09
2023-03-19T18:54:31.128Z,99966.53
2023-03-19T18:57:00.222Z,99970.91
2023-03-19T18:59:30.853Z,99972.78
2023-03-19T19:02:08.833Z,99973.69
2023-03-19T19:04:36.572Z,99976.19
2023-03-19T19:07:03.905Z,99977.97
2023-03-19T19:09:31.244Z,99975.31
2023-03-19T19:12:00.779Z,99964.22
2023-03-19T19:14:28.438Z,99968.50
2023-03-19T19:16:57.034Z,99976.44
2023-03-19T19:19:27.600Z,99986.94
2023-03-19T19:21:55.181Z,99979.09
2023-03-19T19:24:22.575Z,99983.44
2023-03-19T19:26:53.321Z,99979.09
2023-03-19T19:29:23.872Z,99987.03
2023-03-19T19:31:52.887Z,99987.06
2023-03-19T19:34:20.633Z,99989.81
2023-03-19T19:36:48.337Z,99983.66
2023-03-19T19:39:16.781Z,99989.72
2023-03-19T19:41:44.433Z,99992.31
2023-03-19T19:44:30.143Z,99988.00
2023-03-19T19:46:57.845Z,99983.63
2023-03-19T19:49:25.308Z,99982.84
2023-03-19T19:51:52.750Z,99975.69
2023-03-19T19:54:21.693Z,99984.66
2023-03-19T19:56:49.810Z,99989.00
2023-03-19T19:59:17.303Z,99987.09
2023-03-19T20:01:45.093Z,99982.84
2023-03-19T20:04:14.294Z,99983.63
2023-03-19T20:06:41.869Z,99980.97
2023-03-19T20:09:09.295Z,99984.59
2023-03-19T20:11:37.381Z,99983.66
2023-03-19T20:14:04.726Z,99979.34
2023-03-19T20:16:32.101Z,99983.66
2023-03-19T20:18:59.799Z,99981.72
2023-03-19T20:21:29.225Z,99987.94
2023-03-19T20:23:58.761Z,99988.00
2023-03-19T20:26:27.009Z,99981.78
2023-03-19T20:28:54.576Z,99984.47
2023-03-19T20:31:29.828Z,99976.28
2023-03-19T20:33:57.728Z,99973.72
2023-03-19T20:36:26.597Z,99982.41
2023-03-19T20:38:54.178Z,99984.34
2023-03-19T20:41:23.726Z,99982.62
2023-03-19T20:43:51.478Z,99979.06
2023-03-19T20:46:20.388Z,99985.06
2023-03-19T20:48:48.753Z,99980.78
2023-03-19T20:51:22.700Z,99975.91
2023-03-19T20:53:51.508Z,99983.69
2023-03-19T20:56:22.081Z,99977.53
2023-03-19T20:58:49.755Z,99981.06
2023-03-19T21:01:17.961Z,99979.34
2023-03-19T21:03:45.492Z,99975.09
2023-03-19T21:06:18.513Z,99974.22
2023-03-19T21:08:48.114Z,99979.56
2023-03-19T21:11:18.050Z,99976.06
2023-03-19T21:13:53.113Z,99976.13
2023-03-19T21:16:23.065Z,99973.75
2023-03-19T21:18:51.809Z,99966.03
2023-03-19T21:21:27.546Z,99979.81
2023-03-19T21:24:01.438Z,99970.28
2023-03-19T21:26:28.819Z,99971.94
2023-03-19T21:29:02.874Z,99972.88
2023-03-19T21:31:30.366Z,99969.47
2023-03-19T21:33:58.667Z,99967.75
2023-03-19T21:36:27.524Z,99960.84
2023-03-19T21:38:54.897Z,99971.37
2023-03-19T21:41:30.177Z,99969.53
2023-03-19T21:44:00.349Z,99970.41
2023-03-19T21:46:30.601Z,99964.44
2023-03-19T21:48:58.617Z,99968.75
2023-03-19T21:51:28.504Z,99968.84
2023-03-19T21:53:56.134Z,99961.09
2023-03-19T21:56:25.685Z,99959.22
2023-03-19T21:58:53.393Z,99957.31
2023-03-19T22:01:23.924Z,99960.78
2023-03-19T22:03:56.564Z,99958.25
2023-03-19T22:06:24.941Z,99948.72
2023-03-19T22:08:56.154Z,99954.66
2023-03-19T22:11:31.965Z,99953.69
2023-03-19T22:14:16.376Z,99947.66
2023-03-19T22:16:44.745Z,99947.50
2023-03-19T22:19:14.423Z,99950.31
2023-03-19T22:21:41.908Z,99942.25
2023-03-19T22:24:09.284Z,99945.03
2023-03-19T22:26:39.227Z,99944.22
2023-03-19T22:29:27.076Z,99936.25
2023-03-19T22:31:55.968Z,99936.38
2023-03-19T22:34:25.686Z,99934.50
2023-03-19T22:36:53.444Z,99926.50
2023-03-19T22:39:21.180Z,99933.66
2023-03-19T22:41:49.053Z,99932.84
2023-03-19T22:44:24.466Z,99934.63
2023-03-19T22:46:53.302Z,99931.87
2023-03-19T22:49:20.714Z,99929.31
2023-03-19T22:51:48.185Z,99925.87
2023-03-19T22:54:15.926Z,99925.87
2023-03-19T22:56:43.312Z,99922.34
2023-03-19T22:59:11.268Z,99922.25
2023-03-19T23:01:44.454Z,99924.03
2023-03-19T23:04:22.403Z,99924.19
2023-03-19T23:06:51.550Z,99911.91
2023-03-19T23:09:48.003Z,99918.13
2023-03-19T23:12:15.655Z,99913.81
2023-03-19T23:14:42.996Z,99913.00
2023-03-19T23:17:15.198Z,99915.56
2023-03-19T23:19:42.855Z,99910.31
2023-03-19T23:22:15.039Z,99916.41
2023-03-19T23:24:44.619Z,99909.31
2023-03-19T23:27:23.165Z,99910.19
2023-03-19T23:29:51.116Z,99909.16
2023-03-19T23:32:18.599Z,99909.37
2023-03-19T23:34:59.202Z,99909.41
2023-03-19T23:37:29.020Z,99909.50
2023-03-19T23:39:57.878Z,99913.69
2023-03-19T23:42:28.107Z,99914.63
2023-03-19T23:44:58.448Z,99905.09
2023-03-19T23:47:26.363Z,99906.12
2023-03-19T23:49:53.805Z,99907.84
2023-03-19T23:52:21.864Z,99903.59
2023-03-19T23:54:49.265Z,99903.81
2023-03-19T23:57:17.150Z,99897.66
2023-03-19T23:59:46.307Z,99901.25
